Terminal Aerodrome Forecast
Issued by NWS

Home | Current Version | Previous Version | Text Only | Print | Product List | Glossary On
Versions: 1 2 3 4 5 6 7 8 9 10 11 12 13 14 15
675
FTUS43 KIWX 221121
TAFSBN
TAF
KSBN 221121Z 2212/2312 21011KT P6SM BKN100
     FM221500 21017G25KT P6SM BKN100
     FM230000 20014G22KT P6SM VCTS BKN060CB
     FM230400 19012KT P6SM VCTS BKN020 OVC040CB
      TEMPO 2306/2310 4SM TSRA OVC020CB
     FM231000 23010KT 5SM SHRA VCTS OVC010CB=

USA.gov is the U.S. government's official web portal to all federal, state and local government web resources and services.